createdAt,value
2023-01-19T00:01:35.681Z,7.27
2023-01-19T00:05:23.564Z,7.20
2023-01-19T00:09:11.413Z,7.22
2023-01-19T00:12:59.718Z,7.21
2023-01-19T00:16:47.876Z,7.19
2023-01-19T00:20:35.630Z,7.18
2023-01-19T00:24:23.419Z,7.19
2023-01-19T00:28:03.834Z,7.16
2023-01-19T00:31:51.693Z,7.14
2023-01-19T00:35:39.222Z,7.10
2023-01-19T00:39:26.989Z,7.09
2023-01-19T00:43:14.663Z,7.11
2023-01-19T00:47:02.473Z,7.12
2023-01-19T00:50:51.184Z,7.13
2023-01-19T00:54:38.965Z,7.16
2023-01-19T00:58:26.684Z,7.21
2023-01-19T01:02:14.600Z,7.29
2023-01-19T01:06:02.722Z,7.34
2023-01-19T01:09:51.544Z,7.30
2023-01-19T01:13:39.321Z,7.25
2023-01-19T01:17:27.197Z,7.19
2023-01-19T01:21:17.836Z,7.17
2023-01-19T01:25:05.619Z,7.15
2023-01-19T01:28:53.368Z,7.19
2023-01-19T01:32:41.172Z,7.18
2023-01-19T01:36:29.133Z,7.12
2023-01-19T01:40:16.930Z,7.09
2023-01-19T01:44:04.647Z,7.09
2023-01-19T01:47:52.598Z,7.11
2023-01-19T01:51:46.178Z,7.10
2023-01-19T01:55:33.915Z,7.07
2023-01-19T01:59:21.620Z,7.08
2023-01-19T02:03:12.318Z,7.05
2023-01-19T02:06:59.763Z,7.03
2023-01-19T02:10:46.156Z,7.06
2023-01-19T02:14:33.881Z,7.09
2023-01-19T02:18:21.635Z,7.08
2023-01-19T02:22:21.284Z,7.06
2023-01-19T02:26:09.536Z,7.02
2023-01-19T02:30:00.190Z,7.05
2023-01-19T02:33:47.964Z,7.05
2023-01-19T02:37:51.027Z,7.04
2023-01-19T02:41:38.804Z,7.00
2023-01-19T02:45:26.577Z,6.93
2023-01-19T02:49:14.426Z,6.87
2023-01-19T02:53:02.579Z,6.84
2023-01-19T02:56:52.842Z,6.84
2023-01-19T03:00:58.764Z,6.82
2023-01-19T03:04:46.613Z,6.87
2023-01-19T03:08:46.366Z,6.91
2023-01-19T03:12:36.835Z,6.96
2023-01-19T03:16:30.399Z,7.01
2023-01-19T03:20:18.356Z,7.10
2023-01-19T03:24:06.087Z,7.17
2023-01-19T03:27:53.808Z,7.20
2023-01-19T03:31:41.490Z,7.22
2023-01-19T03:35:29.401Z,7.21
2023-01-19T03:39:17.243Z,7.23
2023-01-19T03:43:07.856Z,7.29
2023-01-19T03:46:55.601Z,7.35
2023-01-19T03:50:43.391Z,7.40
2023-01-19T03:54:31.120Z,7.44
2023-01-19T03:58:19.330Z,7.53
2023-01-19T04:02:07.182Z,7.61
2023-01-19T04:05:55.029Z,7.62
2023-01-19T04:09:41.885Z,7.63
2023-01-19T04:13:29.632Z,7.63
2023-01-19T04:17:17.465Z,7.61
2023-01-19T04:21:05.374Z,7.60
2023-01-19T04:24:53.191Z,7.57
2023-01-19T04:28:41.053Z,7.56
2023-01-19T04:32:29.841Z,7.54
2023-01-19T04:36:17.665Z,7.54
2023-01-19T04:40:05.870Z,7.55
2023-01-19T04:43:53.637Z,7.58
2023-01-19T04:47:41.412Z,7.59
2023-01-19T04:51:29.205Z,7.54
2023-01-19T04:55:17.100Z,7.51
2023-01-19T04:59:04.821Z,7.49
2023-01-19T05:02:52.836Z,7.46
2023-01-19T05:06:41.001Z,7.46
2023-01-19T05:10:29.466Z,7.48
2023-01-19T05:14:17.332Z,7.47
2023-01-19T05:18:05.136Z,7.47
2023-01-19T05:21:53.072Z,7.45
2023-01-19T05:25:40.829Z,7.42
2023-01-19T05:29:28.577Z,7.40
2023-01-19T05:33:16.064Z,7.41
2023-01-19T05:37:03.853Z,7.42
2023-01-19T05:40:51.979Z,7.43
2023-01-19T05:44:39.971Z,7.41
2023-01-19T05:48:27.522Z,7.39
2023-01-19T05:52:14.093Z,7.35
2023-01-19T05:56:02.150Z,7.36
2023-01-19T05:59:50.055Z,7.36
2023-01-19T06:03:38.418Z,7.45
2023-01-19T06:07:29.315Z,7.52
2023-01-19T06:11:17.528Z,7.58
2023-01-19T06:15:06.023Z,7.65
2023-01-19T06:18:53.867Z,7.73
2023-01-19T06:22:43.489Z,7.82
2023-01-19T06:26:30.799Z,7.91
2023-01-19T06:30:19.471Z,8.00
2023-01-19T06:34:07.901Z,8.04
2023-01-19T06:37:55.738Z,8.06
2023-01-19T06:41:44.655Z,8.09
2023-01-19T06:45:33.251Z,8.11
2023-01-19T06:49:21.581Z,8.15
2023-01-19T06:53:11.180Z,8.19
2023-01-19T06:57:01.558Z,8.22
2023-01-19T07:00:51.102Z,8.22
2023-01-19T07:04:39.328Z,8.23
2023-01-19T07:08:27.276Z,8.25
2023-01-19T07:12:15.308Z,8.31
2023-01-19T07:16:03.766Z,8.38
2023-01-19T07:19:51.618Z,8.43
2023-01-19T07:23:39.922Z,8.49
2023-01-19T07:27:27.926Z,8.58
2023-01-19T07:31:16.022Z,8.69
2023-01-19T07:35:03.904Z,8.83
2023-01-19T07:38:52.567Z,8.99
2023-01-19T07:42:40.738Z,9.14
2023-01-19T07:46:28.556Z,9.27
2023-01-19T07:50:18.444Z,9.46
2023-01-19T07:54:07.074Z,9.65
2023-01-19T07:57:55.814Z,9.94
2023-01-19T08:01:46.607Z,10.33
2023-01-19T08:05:34.559Z,10.69
2023-01-19T08:09:23.077Z,10.79
2023-01-19T08:13:12.077Z,10.78
2023-01-19T08:16:59.865Z,10.78
2023-01-19T08:20:49.072Z,10.76
2023-01-19T08:24:38.268Z,10.72
2023-01-19T08:28:26.988Z,10.67
2023-01-19T08:32:15.396Z,10.65
2023-01-19T08:36:04.375Z,10.69
2023-01-19T08:39:52.343Z,10.78
2023-01-19T08:43:41.238Z,10.84
2023-01-19T08:47:29.119Z,10.88
2023-01-19T08:51:17.179Z,10.91
2023-01-19T08:55:06.041Z,10.99
2023-01-19T09:03:03.188Z,11.14
2023-01-19T09:06:51.843Z,11.19
2023-01-19T09:10:39.616Z,11.26
2023-01-19T09:14:27.597Z,11.33
2023-01-19T09:18:16.021Z,11.36
2023-01-19T09:22:04.118Z,11.42
2023-01-19T09:25:51.885Z,11.50
2023-01-19T09:29:40.863Z,11.61
2023-01-19T09:33:28.835Z,11.75
2023-01-19T09:37:18.394Z,11.91
2023-01-19T09:41:06.912Z,12.02
2023-01-19T09:45:00.793Z,12.18
2023-01-19T09:48:59.073Z,12.52
2023-01-19T09:52:52.121Z,12.70
2023-01-19T09:56:40.281Z,12.78
2023-01-19T10:00:31.004Z,12.82
2023-01-19T10:04:18.886Z,12.89
2023-01-19T10:08:15.041Z,12.90
2023-01-19T10:12:08.767Z,12.91
2023-01-19T10:16:16.189Z,12.90
2023-01-19T10:20:16.339Z,12.88
2023-01-19T10:24:23.235Z,12.95
2023-01-19T10:28:14.183Z,12.99
2023-01-19T10:32:02.087Z,13.02
2023-01-19T10:35:53.075Z,13.05
2023-01-19T10:39:41.136Z,13.09
2023-01-19T10:43:29.297Z,13.13
2023-01-19T10:47:19.336Z,13.17
2023-01-19T10:51:16.991Z,13.20
2023-01-19T10:55:05.282Z,13.23
2023-01-19T10:59:05.018Z,13.19
2023-01-19T11:03:02.064Z,13.16
2023-01-19T11:06:56.128Z,13.11
2023-01-19T11:10:50.421Z,13.01
2023-01-19T11:14:44.176Z,12.97
2023-01-19T11:18:32.224Z,12.89
2023-01-19T11:22:20.070Z,12.84
2023-01-19T11:26:07.454Z,12.80
2023-01-19T11:29:55.254Z,12.77
2023-01-19T11:33:44.484Z,12.73
2023-01-19T11:37:35.250Z,12.68
2023-01-19T11:41:23.202Z,12.63
2023-01-19T11:45:35.823Z,12.55
2023-01-19T11:49:32.748Z,12.49
2023-01-19T11:53:26.446Z,12.44
2023-01-19T11:57:14.287Z,12.41
2023-01-19T12:01:08.207Z,12.42
2023-01-19T12:05:11.047Z,12.44
2023-01-19T12:08:59.948Z,12.46
2023-01-19T12:12:53.651Z,12.47
2023-01-19T12:17:31.773Z,12.51
2023-01-19T12:21:04.216Z,12.63
2023-01-19T12:25:10.575Z,12.77
2023-01-19T12:28:58.360Z,12.96
2023-01-19T12:32:52.084Z,13.08
2023-01-19T12:36:56.409Z,13.13
2023-01-19T12:40:44.238Z,13.16
2023-01-19T12:44:47.212Z,13.20
2023-01-19T12:48:40.410Z,13.26
2023-01-19T12:52:28.499Z,13.30
2023-01-19T12:56:34.505Z,13.27
2023-01-19T13:00:27.152Z,13.29
2023-01-19T13:04:14.985Z,13.27
2023-01-19T13:08:03.136Z,13.24
2023-01-19T13:12:00.658Z,13.22
2023-01-19T13:16:05.646Z,13.15
2023-01-19T13:20:05.799Z,12.70
2023-01-19T13:24:06.115Z,12.07
2023-01-19T13:27:53.990Z,11.59
2023-01-19T13:31:42.070Z,11.35
2023-01-19T13:35:35.942Z,11.27
2023-01-19T13:39:18.502Z,11.14
2023-01-19T13:43:11.124Z,11.00
2023-01-19T13:46:58.899Z,10.85
2023-01-19T13:50:47.517Z,10.71
2023-01-19T13:54:36.395Z,10.58
2023-01-19T13:58:31.445Z,10.50
2023-01-19T14:02:22.432Z,10.29
2023-01-19T14:06:22.588Z,10.06
2023-01-19T14:10:16.494Z,9.81
2023-01-19T14:14:04.264Z,9.57
2023-01-19T14:17:58.091Z,9.32
2023-01-19T14:22:04.581Z,9.12
2023-01-19T14:25:52.600Z,8.99
2023-01-19T14:30:01.785Z,8.91
2023-01-19T14:33:49.561Z,8.82
2023-01-19T14:37:37.487Z,8.76
2023-01-19T14:41:25.421Z,8.78
2023-01-19T14:45:16.062Z,8.77
2023-01-19T14:49:04.240Z,8.81
2023-01-19T14:53:02.268Z,8.83
2023-01-19T14:56:52.901Z,8.71
2023-01-19T15:00:41.148Z,8.64
2023-01-19T15:04:29.857Z,8.56
2023-01-19T15:08:17.780Z,8.53
2023-01-19T15:12:11.605Z,8.47
2023-01-19T15:15:59.995Z,8.38
2023-01-19T15:19:52.083Z,8.34
2023-01-19T15:23:39.881Z,8.31
2023-01-19T15:27:28.147Z,8.28
2023-01-19T15:31:20.425Z,8.23
2023-01-19T15:35:09.391Z,8.24
2023-01-19T15:38:57.385Z,8.26
2023-01-19T15:42:45.411Z,8.29
2023-01-19T15:46:39.574Z,8.26
2023-01-19T15:50:27.489Z,8.20
2023-01-19T15:54:16.295Z,8.19
2023-01-19T15:58:04.447Z,8.18
2023-01-19T16:01:55.549Z,8.16
2023-01-19T16:05:44.530Z,8.13
2023-01-19T16:09:34.211Z,8.10
2023-01-19T16:13:22.566Z,8.04
2023-01-19T16:17:14.200Z,7.99
2023-01-19T16:21:00.916Z,7.89
2023-01-19T16:24:48.753Z,7.76
2023-01-19T16:28:37.498Z,7.71
2023-01-19T16:32:26.141Z,7.67
2023-01-19T16:36:14.268Z,7.59
2023-01-19T16:40:02.306Z,7.48
2023-01-19T16:43:51.561Z,7.45
2023-01-19T16:47:41.384Z,7.40
2023-01-19T16:51:39.139Z,7.32
2023-01-19T16:55:27.108Z,7.27
2023-01-19T16:59:16.142Z,7.20
2023-01-19T17:03:06.263Z,7.18
2023-01-19T17:06:55.100Z,7.13
2023-01-19T17:10:43.573Z,7.09
2023-01-19T17:14:35.168Z,7.08
2023-01-19T17:18:23.536Z,7.06
2023-01-19T17:22:11.499Z,6.98
2023-01-19T17:26:00.496Z,6.91
2023-01-19T17:29:41.437Z,6.82
2023-01-19T17:33:31.300Z,6.74
2023-01-19T17:37:22.147Z,6.66
2023-01-19T17:41:10.129Z,6.63
2023-01-19T17:45:00.005Z,6.61
2023-01-19T17:48:50.567Z,6.61
2023-01-19T17:52:39.347Z,6.63
2023-01-19T17:56:27.214Z,6.69
2023-01-19T18:00:15.291Z,6.72
2023-01-19T18:04:03.256Z,6.72
2023-01-19T18:07:52.137Z,6.72
2023-01-19T18:11:40.259Z,6.73
2023-01-19T18:15:28.366Z,6.76
2023-01-19T18:19:16.261Z,6.75
2023-01-19T18:23:04.270Z,6.75
2023-01-19T18:26:54.275Z,6.74
2023-01-19T18:30:47.709Z,6.72
2023-01-19T18:34:35.651Z,6.74
2023-01-19T18:38:23.482Z,6.78
2023-01-19T18:42:11.358Z,6.78
2023-01-19T18:46:00.321Z,6.81
2023-01-19T18:49:49.100Z,6.82
2023-01-19T18:53:38.082Z,6.83
2023-01-19T18:57:26.154Z,6.85
2023-01-19T19:01:14.598Z,6.83
2023-01-19T19:05:03.382Z,6.79
2023-01-19T19:08:52.126Z,6.76
2023-01-19T19:12:40.124Z,6.72
2023-01-19T19:16:29.848Z,6.76
2023-01-19T19:20:17.805Z,6.78
2023-01-19T19:24:06.385Z,6.77
2023-01-19T19:27:54.955Z,6.75
2023-01-19T19:31:46.017Z,6.73
2023-01-19T19:35:35.139Z,6.73
2023-01-19T19:39:22.805Z,6.73
2023-01-19T19:43:12.535Z,6.71
2023-01-19T19:47:01.394Z,6.67
2023-01-19T19:50:50.604Z,6.59
2023-01-19T19:54:39.390Z,6.55
2023-01-19T19:58:27.274Z,6.55
2023-01-19T20:02:15.208Z,6.55
2023-01-19T20:06:03.118Z,6.54
2023-01-19T20:09:50.967Z,6.51
2023-01-19T20:13:40.133Z,6.49
2023-01-19T20:17:28.062Z,6.44
2023-01-19T20:21:19.291Z,6.42
2023-01-19T20:25:07.176Z,6.41
2023-01-19T20:28:55.282Z,6.36
2023-01-19T20:32:43.350Z,6.34
2023-01-19T20:36:31.992Z,6.35
2023-01-19T20:40:19.938Z,6.33
2023-01-19T20:44:07.851Z,6.30
2023-01-19T20:47:55.657Z,6.26
2023-01-19T20:51:43.837Z,6.24
2023-01-19T20:55:35.480Z,6.23
2023-01-19T20:59:23.415Z,6.21
2023-01-19T21:03:11.284Z,6.21
2023-01-19T21:06:59.083Z,6.23
2023-01-19T21:10:46.925Z,6.25
2023-01-19T21:14:34.813Z,6.25
2023-01-19T21:18:22.632Z,6.24
2023-01-19T21:22:10.979Z,6.18
2023-01-19T21:25:58.905Z,6.15
2023-01-19T21:29:46.809Z,6.15
2023-01-19T21:33:34.710Z,6.15
2023-01-19T21:37:22.515Z,6.15
2023-01-19T21:41:10.433Z,6.13
2023-01-19T21:44:58.307Z,6.09
2023-01-19T21:48:46.195Z,6.05
2023-01-19T21:52:34.466Z,6.05
2023-01-19T21:56:24.874Z,6.05
2023-01-19T22:00:12.748Z,6.05
2023-01-19T22:03:40.487Z,5.98
2023-01-19T22:07:28.362Z,5.91
2023-01-19T22:11:17.325Z,5.86
2023-01-19T22:15:05.642Z,5.86
2023-01-19T22:18:53.326Z,5.84
2023-01-19T22:22:41.715Z,5.84
2023-01-19T22:26:29.504Z,5.84
2023-01-19T22:30:17.411Z,5.85
2023-01-19T22:34:05.420Z,5.84
2023-01-19T22:37:53.230Z,5.88
2023-01-19T22:41:40.999Z,5.92
2023-01-19T22:45:28.846Z,5.97
2023-01-19T22:49:16.596Z,6.02
2023-01-19T22:53:06.121Z,6.04
2023-01-19T22:56:54.900Z,6.07
2023-01-19T23:00:45.331Z,6.08
2023-01-19T23:04:33.262Z,6.07
2023-01-19T23:08:21.838Z,6.02
2023-01-19T23:12:12.257Z,5.99
2023-01-19T23:16:00.191Z,5.98
2023-01-19T23:19:47.996Z,5.96
2023-01-19T23:23:35.772Z,5.96
2023-01-19T23:27:23.471Z,5.95
2023-01-19T23:31:11.472Z,5.89
2023-01-19T23:34:59.535Z,5.88
2023-01-19T23:38:47.325Z,5.87
2023-01-19T23:42:35.014Z,5.83
2023-01-19T23:46:22.892Z,5.79
2023-01-19T23:50:11.016Z,5.76
2023-01-19T23:53:58.783Z,5.72
2023-01-19T23:57:46.497Z,5.72
